首页
METAR-TAF:

METAR-TAF

机场 :

突尼斯-迦太基国际机场

突尼斯, 突尼斯

纬度: 36-50N, 经度: 010-14E, 海拔: 3米

当前天气观测

该预报发布于20分钟前的02:30 UTC
风速4节,风向南转南东
温度 7°C
湿度 76%
气压 1029 hPa
能见度10公里或以上
少量云层高于2600英尺

METAR: DTTA 170230Z 16004KT 9999 FEW026 07/03 Q1029 NOSIG

时间: 03:50 (02:50 UTC)

预报

该预报发布于3小时和50分钟前的23:00 UTC
预报有效从17日的 00点(UTC)到 17日的 24点(UTC)
风速3节,风向多变
能见度10公里或以上
少量云层高于2600英尺
几率 30% :
短暂存在
从 17日的 02点(UTC)到 17日的 06点(UTC)
能見度: 3000
轻雾
成为
从 17日的 12点(UTC)到 17日的 14点(UTC)
风速10节,风向东转东南
成为
从 17日的 22点(UTC)到 17日的 24点(UTC)
风速10节,风向

TAF: DTTA 162300Z 1700/1724 VRB03KT 9999 FEW026 PROB30 TEMPO 1702/1706 3000 BR BECMG 1712/1714 12010KT BECMG 1722/1724 18010KT

超过4000个机场的气象观测和天气预报(METAR&TAF报告)。

可查询的气象台以黄色和红色小点在地图上表示。

将鼠标移到小点上方,可查看气象台名称。

然后点击查看天气观测和预报。

如需切换地图:点击带黑十字的绿色按钮放大地图;点击带横线的绿色按钮缩小地图;或者点击绿色箭头查看邻近地区的地图。


METAR-TAF: